Flight Track Log - Related Links

Times and Time Zones

All times are in EDT time to prevent confusion due to time zone crossing. See the ASQ5123 flight status page for this flight to view local times or setup timezone preferences in your user account.

Time Position Orientation Groundspeed Altitude Reporting Facility
EDT Latitude Longitude Course Direction KTS MPH feet Rate Location/Type
Sun 12:22:22 PM 42.2319 -83.3314 51° Northeast 151 174 1,500  Level Cleveland Center
Sun 12:23:23 PM 42.2681 -83.2714 51° Northeast 237 273 2,900 2,066 Climbing Cleveland Center
Sun 12:24:24 PM 42.3053 -83.1947 57° Northeast 253 291 5,700 2,632 Climbing Cleveland Center
Sun 12:25:17 PM 42.2625 -83.1381 136° Southeast 270 311 7,900 2,557 Climbing Cleveland Center
Sun 12:25:25 PM 42.2511 -83.1367 175° South 282 325 8,300 2,129 Climbing Cleveland Center
Sun 12:26:19 PM 42.1839 -83.1181 168° South 280 322 10,100 2,035 Climbing Cleveland Center
Sun 12:27:20 PM 42.0958 -83.1222 182° South 327 376 12,200 2,341 Climbing Cleveland Center
Sun 12:28:22 PM 42.0147 -83.1656 202° Southwest 315 362 14,900 2,274 Climbing Cleveland Center
Sun 12:29:24 PM 41.9350 -83.2069 201° Southwest 308 354 16,900 1,452 Climbing Cleveland Center
Sun 12:30:26 PM 41.8519 -83.2489 201° Southwest 313 360 17,900 1,403 Climbing Cleveland Center
Sun 12:31:28 PM 41.7703 -83.2908 201° Southwest 313 360 19,800 1,707 Climbing Cleveland Center
Sun 12:32:29 PM 41.6869 -83.3328 201° Southwest 317 365 21,400 1,756 Climbing Cleveland Center
Sun 12:33:31 PM 41.5703 -83.3364 181° South 352 405 23,400 1,645 Climbing Cleveland Center
Sun 12:34:33 PM 41.4797 -83.3617 192° South 333 383 24,800 1,016 Climbing Cleveland Center
Sun 12:35:35 PM 41.3944 -83.4114 204° Southwest 334 384 25,500 774 Climbing Cleveland Center
Sun 12:36:37 PM 41.3042 -83.4631 203° Southwest 347 399 26,400 976 Climbing Cleveland Center
Sun 12:37:38 PM 41.2125 -83.5164 204° Southwest 358 412 27,500 927 Climbing Cleveland Center
Sun 12:38:40 PM 41.1206 -83.5689 203° Southwest 358 412 28,300 726 Climbing Cleveland Center
Sun 12:39:42 PM 41.0153 -83.6306 204° Southwest 368 423 29,000 703 Climbing Cleveland Center
Sun 12:40:31 PM 40.9364 -83.6733 202° Southwest 375 432 29,600 973 Climbing Indianapolis Center
Sun 12:41:33 PM 40.8283 -83.7017 191° South 389 448 30,800 1,161 Climbing Indianapolis Center
Sun 12:42:35 PM 40.7211 -83.7200 187° South 390 449 32,000 1,024 Climbing Indianapolis Center
Sun 12:43:36 PM 40.6108 -83.7208 180° South 394 453 32,900 878 Climbing Indianapolis Center
Sun 12:44:38 PM 40.4794 -83.7256 182° South 394 453 33,800 677 Climbing Indianapolis Center
Sun 12:45:40 PM 40.3672 -83.7311 182° South 399 459 34,300 488 Climbing Indianapolis Center
Sun 12:46:41 PM 40.2556 -83.7350 182° South 401 461 34,800 537 Climbing Indianapolis Center
Sun 12:47:43 PM 40.1428 -83.7400 182° South 402 463 35,400 488 Climbing Indianapolis Center
Sun 12:48:44 PM 40.0283 -83.7433 181° South 408 470 35,800 293 Climbing Indianapolis Center
Sun 12:49:46 PM 39.9144 -83.7486 182° South 413 475 36,000 97 Climbing Indianapolis Center
Sun 12:50:48 PM 39.7731 -83.7539 182° South 426 490 36,000  Level Indianapolis Center
Sun 12:51:49 PM 39.6572 -83.7575 181° South 426 490 36,000  Level Indianapolis Center
Sun 12:52:51 PM 39.5403 -83.7636 182° South 426 490 36,000  Level Indianapolis Center
Sun 12:53:53 PM 39.4228 -83.7678 182° South 426 490 36,000  Level Indianapolis Center
Sun 12:54:54 PM 39.3019 -83.7717 181° South 432 497 36,000  Level Indianapolis Center
Sun 12:55:56 PM 39.1558 -83.7775 182° South 434 499 36,000  Level Indianapolis Center
Sun 12:56:58 PM 39.0319 -83.7825 182° South 441 507 36,000  Level Indianapolis Center
Sun 12:58:00 PM 38.9075 -83.7861 181° South 444 511 36,000  Level Indianapolis Center
Sun 12:59:01 PM 38.7819 -83.7925 182° South 447 514 36,000  Level Indianapolis Center
Sun 01:00:03 PM 38.6564 -83.7967 181° South 449 517 36,000  Level Indianapolis Center
Sun 01:01:05 PM 38.5136 -83.8022 182° South 450 518 36,000  Level Indianapolis Center
Sun 01:02:07 PM 38.3894 -83.8067 182° South 449 517 36,000  Level Indianapolis Center
Sun 01:03:08 PM 38.2644 -83.8111 182° South 449 517 36,000  Level Indianapolis Center
Sun 01:04:10 PM 38.1397 -83.8156 182° South 449 517 36,000  Level Indianapolis Center
Sun 01:05:12 PM 38.0156 -83.8203 182° South 449 517 36,000  Level Indianapolis Center
Sun 01:06:14 PM 37.8914 -83.8250 182° South 448 516 36,000  Level Indianapolis Center
Sun 01:07:15 PM 37.7478 -83.8289 181° South 444 511 36,000  Level Indianapolis Center
Sun 01:08:17 PM 37.6231 -83.8347 182° South 444 511 36,000  Level Indianapolis Center
Sun 01:09:19 PM 37.4989 -83.8389 182° South 444 511 36,000  Level Indianapolis Center
Sun 01:10:21 PM 37.3750 -83.8425 181° South 444 511 36,000  Level Indianapolis Center
Sun 01:11:23 PM 37.2519 -83.8481 182° South 444 511 36,000  Level Indianapolis Center
Sun 01:12:25 PM 37.1289 -83.8522 182° South 444 511 36,000  Level Indianapolis Center
Sun 01:13:27 PM 36.9844 -83.8572 182° South 444 511 36,000  Level Indianapolis Center
Sun 01:14:28 PM 36.8608 -83.8619 182° South 444 511 36,000  Level Indianapolis Center
Sun 01:15:30 PM 36.7364 -83.8667 182° South 445 512 36,000  Level Indianapolis Center
Sun 01:16:32 PM 36.6128 -83.8708 182° South 445 512 36,000  Level Indianapolis Center
Sun 01:17:34 PM 36.4892 -83.8750 182° South 445 512 36,000  Level Indianapolis Center
Sun 01:18:36 PM 36.3636 -83.8789 181° South 446 513 36,000  Level Indianapolis Center
Sun 01:19:38 PM 36.2136 -83.8847 182° South 446 513 36,000  Level Indianapolis Center
Sun 01:20:40 PM 36.0889 -83.8886 181° South 446 513 36,000  Level Indianapolis Center
Sun 01:21:46 PM 35.9622 -83.8950 182° South 451 519 36,000  Level Atlanta Center
Sun 01:22:46 PM 35.8328 -83.8747 173° South 456 525 36,000  Level Atlanta Center
Sun 01:23:46 PM 35.7036 -83.8367 167° South 470 541 36,000  Level Atlanta Center
Sun 01:24:46 PM 35.5761 -83.8014 167° South 470 541 36,000  Level Atlanta Center
Sun 01:25:46 PM 35.4467 -83.7608 166° South 470 541 36,000  Level Atlanta Center
Sun 01:26:46 PM 35.3172 -83.7231 167° South 475 547 36,000  Level Atlanta Center
Sun 01:27:46 PM 35.1878 -83.6856 167° South 475 547 36,000  Level Atlanta Center
Sun 01:28:46 PM 35.0625 -83.6481 166° South 470 541 36,000  Level Atlanta Center
Sun 01:29:46 PM 34.9183 -83.6031 166° South 470 541 36,000  Level Atlanta Center
Sun 01:30:46 PM 34.7908 -83.5658 167° South 475 547 36,000  Level Atlanta Center
Sun 01:31:46 PM 34.6656 -83.5336 168° South 465 535 36,000  Level Atlanta Center
Sun 01:32:46 PM 34.5319 -83.4917 165° South 481 554 36,000  Level Atlanta Center
Sun 01:33:46 PM 34.4044 -83.4547 167° South 481 554 36,000  Level Atlanta Center
Sun 01:34:46 PM 34.2894 -83.4253 168° South 481 554 36,000  Level Atlanta Center
Sun 01:35:46 PM 34.1578 -83.3861 166° South 475 547 36,000 -500 Level Atlanta Center
Sun 01:36:46 PM 34.0303 -83.3519 167° South 475 547 35,000 -500 Descending Atlanta Center
Sun 01:37:46 PM 33.8986 -83.3081 165° South 475 547 35,000  Level Atlanta Center
Sun 01:38:46 PM 33.7689 -83.2667 165° South 475 547 35,000  Level Atlanta Center
Sun 01:39:46 PM 33.6308 -83.2206 164° South 470 541 35,000 -200 Level Atlanta Center
Sun 01:40:46 PM 33.5011 -83.1769 164° South 475 547 34,600 -700 Descending Atlanta Center
Sun 01:41:46 PM 33.3756 -83.1333 164° South 475 547 33,600 -800 Descending Atlanta Center
Sun 01:42:46 PM 33.2500 -83.0900 164° South 475 547 33,000 -300 Descending Atlanta Center
Sun 01:43:46 PM 33.1222 -83.0467 164° South 475 547 33,000 -200 Level Atlanta Center
Sun 01:44:46 PM 32.9967 -83.0036 164° South 468 539 32,600 -700 Descending Atlanta Center
Sun 01:45:46 PM 32.8689 -82.9556 162° South 474 545 31,600 -1,000 Descending Atlanta Center
Sun 01:46:46 PM 32.7328 -82.9128 165° South 487 560 30,600 -1,000 Descending Atlanta Center
Sun 01:47:46 PM 32.5989 -82.8653 163° South 503 579 29,600 -1,000 Descending Atlanta Center
Sun 01:48:46 PM 32.4669 -82.8228 165° South 498 573 28,600 -1,000 Descending Atlanta Center
Sun 01:49:46 PM 32.3372 -82.7778 164° South 493 567 27,600 -792 Descending Atlanta Center
Sun 01:52:03 PM 32.0453 -82.6794 164° South 481 554 26,000 -487 Descending Jacksonville Center
Sun 01:53:03 PM 31.9136 -82.6331 163° South 481 554 26,000 -50 Level Jacksonville Center
Sun 01:54:03 PM 31.7883 -82.5919 164° South 486 559 25,900 -550 Descending Jacksonville Center
Sun 01:55:03 PM 31.6669 -82.5508 164° South 473 544 24,900 -900 Descending Jacksonville Center
Sun 01:56:03 PM 31.5522 -82.5122 164° South 451 519 24,100 -800 Descending Jacksonville Center
Sun 01:57:03 PM 31.4433 -82.4617 158° South 433 498 23,300 -1,250 Descending Jacksonville Center
Sun 01:58:03 PM 31.3325 -82.4111 159° South 427 491 21,600 -2,400 Descending Jacksonville Center
Sun 01:59:03 PM 31.2239 -82.3581 157° South 432 497 18,500 -2,950 Descending Jacksonville Center
Sun 02:00:03 PM 31.1192 -82.3053 157° South 426 490 15,700 -2,828 Descending Jacksonville Center
Sun 02:00:30 PM 31.0731 -82.2814 156° South 409 471 14,400 -2,900 Descending Jacksonville Center
Sun 02:01:03 PM 31.0167 -82.2525 156° South 414 476 12,800 -2,060 Descending Jacksonville Center
Sun 02:01:37 PM 30.9706 -82.2192 148° Southeast 386 444 12,100 -800 Descending Jacksonville Center
Sun 02:02:03 PM 30.9328 -82.1781 137° Southeast 385 443 12,000 -537 Descending Jacksonville Center
Sun 02:02:44 PM 30.8800 -82.1181 136° Southeast 388 447 11,500 -900 Descending Jacksonville Center
Sun 02:03:03 PM 30.8550 -82.0917 138° Southeast 385 443 11,100 -1,082 Descending Jacksonville Center
Sun 02:03:45 PM 30.8044 -82.0339 136° Southeast 376 433 10,400 -1,000 Descending Jacksonville Center
Sun 02:04:03 PM 30.7833 -82.0075 133° Southeast 378 435 10,100 -984 Descending Jacksonville Center
Sun 02:04:46 PM 30.7475 -81.9475 125° Southeast 305 351 9,400 -1,200 Descending Jacksonville Center
Sun 02:05:03 PM 30.7347 -81.9331 136° Southeast 356 410 8,900 -2,459 Descending Jacksonville Center
Sun 02:05:47 PM 30.6944 -81.8633 124° Southeast 308 354 6,900 -2,200 Descending Jacksonville Center
Sun 02:06:03 PM 30.6861 -81.8514 129° Southeast 326 375 6,700 -2,060 Descending Jacksonville Center
Sun 02:06:54 PM 30.6394 -81.7772 126° Southeast 280 322 4,600 -2,000 Descending Jacksonville Center
Sun 02:07:03 PM 30.6394 -81.7772 126° Southeast 300 345 4,700 -1,328 Climbing Jacksonville Center
Sun 02:08:56 PM 30.5694 -81.6403 121° Southeast 195 224 1,900 -1,243 Descending Jacksonville Center
Sun 02:09:52 PM 30.5275 -81.6264 164° South 165 190 1,200 -627 Descending Jacksonville Center
Sun 02:10:03 PM 30.5233 -81.6242 155° Southeast 192 221 1,200 -787 Level Jacksonville Center
Sun 02:10:53 PM 30.5089 -81.6606 245° Southwest 130 150 400 -960 Descending Jacksonville Center
Sun 02:12:00 PM 30.4941 -81.6878 134° Southeast  Level Estimated
Sun 02:19:00 PM 30.4941 -81.6878 311° West  Level Estimated

Login

Don't have an account? Register now (free) for customized features, flight alerts, and more!